aviador You're here:

OIBA Decoded Metar

ABUMUSA I. in IRAN
Report Time2017-11-21 04:00:00
UTC Time2017-11-21 04:16:30
Flight Rules vfr VFR
Wind060° at 04 kt
W.Decomp.*RWY 08: 3.7 kt HW 1.4 kt LCW
W.Rank060° ranks 3
Current wind is below 060° avg. (9.5)
Visibility9999 m
Phenomena:N/A
Clouds:N/A
Expected CloudBase > 3,600 ft AGL from Temp-Dew spread
CeilingNone
Temp25°C (ISA +10)
Dew Point16°C (57% RH)
QNH1015 hPa
Density Alt1,362 ft
Elevation22 ft
Report Wrong Elevation
Raw Report
METAR OIBA 210400Z 06004KT CAVOK 25/16 Q1015=

Extra information for OIBA:More info

Metar Taf Metar & Taf Last 4 Metars F.Rules Stats Wind Profile Meteogram Temp Stats Airport Information Weather charts Add Link Nearby VenuesMetar ALERT Operation Metar Decoded Social comments